Time;durP1;ratioP1;P1;durP2;ratioP2;P2;SDS_P1;SDS_P2;PMS_P1;PMS_P2;Temp;Humidity;BMP_temperature;BMP_pressure;BME280_temperature;BME280_humidity;BME280_pressure;Samples;Min_cycle;Max_cycle;Signal;HPM_P1;HPM_P2
2023/03/23 00:00:59;;;;;;;7.57;6.97;;;;;;;8.91;100.00;-11686.47;5048216;28;20212;-62
2023/03/23 00:03:28;;;;;;;6.73;6.33;;;;;;;8.93;100.00;-11686.75;5048506;28;20205;-62
2023/03/23 00:05:59;;;;;;;6.40;6.00;;;;;;;8.87;100.00;-11368.44;5048323;28;20258;-61
2023/03/23 00:08:27;;;;;;;7.70;7.17;;;;;;;8.80;100.00;-11367.50;5048485;28;20185;-61
2023/03/23 00:10:56;;;;;;;7.70;7.00;;;;;;;8.87;100.00;-11368.44;5048163;28;20215;-62
2023/03/23 00:13:24;;;;;;;7.13;6.77;;;;;;;8.88;100.00;-11368.53;5048244;28;20185;-62
2023/03/23 00:15:51;;;;;;;7.27;6.67;;;;;;;8.90;100.00;-11051.22;5048673;28;20656;-62
2023/03/23 00:18:21;;;;;;;7.40;6.80;;;;;;;8.92;100.00;-11051.53;5031041;28;20517;-62
2023/03/23 00:20:49;;;;;;;7.23;6.83;;;;;;;8.97;100.00;-11052.13;5048446;28;20208;-62
2023/03/23 00:23:22;;;;;;;8.10;7.60;;;;;;;9.00;100.00;-11370.13;5048517;28;20574;-62
2023/03/23 00:25:52;;;;;;;11.17;7.03;;;;;;;8.95;100.00;-11051.88;5048410;28;20261;-61
2023/03/23 00:28:24;;;;;;;10.20;7.00;;;;;;;8.86;100.00;-11368.25;5048498;28;20597;-62
2023/03/23 00:30:56;;;;;;;7.83;7.10;;;;;;;9.06;100.00;-11370.94;5048536;28;20556;-61
2023/03/23 00:33:23;;;;;;;7.53;7.13;;;;;;;9.03;100.00;-11370.59;5048119;28;20185;-62
2023/03/23 00:35:52;;;;;;;7.90;7.40;;;;;;;9.08;100.00;-11688.81;5048125;28;20186;-61
2023/03/23 00:38:19;;;;;;;8.73;7.93;;;;;;;9.05;100.00;-11688.47;5048487;28;20646;-63
2023/03/23 00:40:46;;;;;;;9.77;8.93;;;;;;;9.08;100.00;-11688.81;5048215;28;20690;-62
2023/03/23 00:43:13;;;;;;;9.40;8.70;;;;;;;9.10;100.00;-12006.72;5048247;28;20224;-62
2023/03/23 00:45:42;;;;;;;7.83;7.43;;;;;;;8.99;100.00;-12005.19;5047859;28;20186;-61
2023/03/23 00:48:09;;;;;;;9.63;8.93;;;;;;;8.97;100.00;-12004.84;5048009;28;20256;-62
2023/03/23 00:50:36;;;;;;;8.97;8.23;;;;;;;9.02;100.00;-12005.56;5048554;28;20224;-61
2023/03/23 00:53:02;;;;;;;9.37;8.13;;;;;;;9.07;100.00;-12006.28;5047821;28;20193;-62
2023/03/23 00:55:30;;;;;;;8.70;8.10;;;;;;;9.04;100.00;-11688.28;5030342;28;20190;-62
2023/03/23 00:57:57;;;;;;;10.23;8.50;;;;;;;9.04;100.00;-11688.34;5048016;28;20647;-62
2023/03/23 01:00:24;;;;;;;10.03;8.37;;;;;;;8.92;100.00;-11686.59;5030037;28;20217;-62
2023/03/23 01:02:54;;;;;;;10.90;8.40;;;;;;;9.06;100.00;-11370.94;5048019;28;20647;-62
2023/03/23 01:05:21;;;;;;;9.10;8.27;;;;;;;8.96;100.00;-11052.00;5047682;28;20186;-62
2023/03/23 01:07:48;;;;;;;9.40;7.53;;;;;;;8.89;100.00;-11051.16;5048029;28;20314;-62
2023/03/23 01:10:17;;;;;;;10.27;8.00;;;;;;;8.99;100.00;-11370.06;5047621;28;20181;-62
2023/03/23 01:12:45;;;;;;;13.30;7.97;;;;;;;9.04;100.00;-11053.03;5048065;28;20691;-62
2023/03/23 01:15:17;;;;;;;8.60;7.80;;;;;;;9.18;100.00;-11054.81;5047940;28;20540;-62
2023/03/23 01:17:45;;;;;;;10.30;8.47;;;;;;;9.21;100.00;-11055.19;5047903;28;20189;-62
2023/03/23 01:20:14;;;;;;;7.30;6.80;;;;;;;9.22;100.00;-11055.28;5047920;28;20218;-61
2023/03/23 01:22:42;;;;;;;8.73;7.33;;;;;;;9.10;100.00;-11053.84;5049481;28;20185;-62
2023/03/23 01:25:11;;;;;;;8.10;7.30;;;;;;;9.10;100.00;-11371.53;5050943;28;20232;-61
2023/03/23 01:27:38;;;;;;;8.77;7.13;;;;;;;9.06;100.00;-11370.94;5051002;28;20349;-62
2023/03/23 01:30:06;;;;;;;8.10;7.30;;;;;;;9.20;100.00;-11690.50;5050690;28;20188;-61
2023/03/23 01:32:33;;;;;;;8.07;7.60;;;;;;;9.13;100.00;-11689.53;5050945;28;20196;-62
2023/03/23 01:35:00;;;;;;;8.60;8.10;;;;;;;9.05;100.00;-11688.47;5051013;28;20587;-62
2023/03/23 01:37:29;;;;;;;10.20;9.13;;;;;;;9.02;100.00;-11688.06;5050912;28;20555;-64
2023/03/23 01:39:57;;;;;;;9.70;8.97;;;;;;;8.92;100.00;-11686.59;5050606;28;20220;-62
2023/03/23 01:42:25;;;;;;;18.37;10.67;;;;;;;8.99;100.00;-11687.56;5050903;28;20197;-62
2023/03/23 01:45:23;;;;;;;23.73;11.30;;;;;;;9.06;100.00;-11371.00;5050919;28;20217;-62
2023/03/23 01:47:52;;;;;;;16.53;11.87;;;;;;;9.00;100.00;-11052.50;5050502;28;20226;-62
2023/03/23 01:50:22;;;;;;;13.77;10.67;;;;;;;9.04;100.00;-11053.03;5050898;28;20209;-62
2023/03/23 01:52:52;;;;;;;11.87;10.77;;;;;;;9.04;100.00;-11053.09;5050305;28;20238;-62
2023/03/23 01:55:20;;;;;;;13.40;10.10;;;;;;;9.04;100.00;-11053.03;5050075;28;20192;-61
2023/03/23 01:57:48;;;;;;;16.63;11.80;;;;;;;8.99;100.00;-11052.44;5050074;28;20505;-63
2023/03/23 02:00:17;;;;;;;15.30;11.20;;;;;;;8.91;100.00;-10733.81;5050653;28;20549;-61
2023/03/23 02:02:45;;;;;;;18.23;12.33;;;;;;;8.73;100.00;-11049.03;5050481;28;20197;-63
2023/03/23 02:05:22;;;;;;;39.30;13.27;;;;;;;8.89;100.00;-11051.16;5050166;28;20188;-62
2023/03/23 02:07:52;;;;;;;51.83;14.60;;;;;;;8.98;100.00;-11052.25;5050224;28;20185;-62
2023/03/23 02:10:19;;;;;;;46.37;15.27;;;;;;;9.18;100.00;-11054.81;5050244;28;20193;-62
2023/03/23 02:12:46;;;;;;;29.43;13.70;;;;;;;9.02;100.00;-10735.16;5050525;28;20276;-62
2023/03/23 02:15:13;;;;;;;22.80;12.87;;;;;;;9.12;100.00;-10736.41;5050312;28;20205;-62
2023/03/23 02:17:47;;;;;;;30.10;12.70;;;;;;;9.11;100.00;-10736.28;5049965;28;20284;-62
2023/03/23 02:20:40;;;;;;;18.03;11.87;;;;;;;9.09;100.00;-10735.97;5049960;28;20216;-61
2023/03/23 02:23:39;;;;;;;22.60;11.90;;;;;;;9.12;100.00;-10736.34;5049997;28;20222;-63
2023/03/23 02:26:21;;;;;;;20.53;11.33;;;;;;;9.18;100.00;-11054.88;5049562;28;20311;-62
2023/03/23 02:29:09;;;;;;;19.27;11.80;;;;;;;9.17;100.00;-11054.69;5049767;28;20186;-62
2023/03/23 02:31:52;;;;;;;31.60;12.87;;;;;;;9.12;100.00;-11054.09;5049771;28;20182;-62
2023/03/23 02:34:28;;;;;;;27.97;11.57;;;;;;;8.94;100.00;-10734.19;5048546;28;20197;-61
2023/03/23 02:37:01;;;;;;;30.73;12.37;;;;;;;9.10;100.00;-10736.16;5049983;28;20185;-63
2023/03/23 02:39:35;;;;;;;49.03;14.00;;;;;;;9.02;100.00;-11052.75;5050310;28;20186;-62
2023/03/23 02:42:06;;;;;;;34.80;12.80;;;;;;;9.22;100.00;-10737.56;5049571;28;20181;-62
2023/03/23 02:44:35;;;;;;;31.27;12.80;;;;;;;9.24;100.00;-10737.81;5049620;28;20186;-62
2023/03/23 02:47:05;;;;;;;32.53;13.20;;;;;;;9.14;100.00;-10736.59;5042155;28;20233;-62
2023/03/23 02:49:37;;;;;;;25.77;12.67;;;;;;;9.04;100.00;-11053.09;5030789;28;20617;-62
2023/03/23 02:52:08;;;;;;;19.33;11.93;;;;;;;9.15;100.00;-11054.44;5133750;27;20645;-62
2023/03/23 02:54:36;;;;;;;16.60;12.73;;;;;;;8.90;100.00;-11051.22;5132731;27;20186;-62
2023/03/23 02:57:03;;;;;;;16.80;12.10;;;;;;;8.69;100.00;-11048.59;5133389;27;20209;-62
2023/03/23 02:59:32;;;;;;;13.23;10.13;;;;;;;9.04;100.00;-11053.03;5133606;27;20182;-63
2023/03/23 03:02:12;;;;;;;12.30;10.20;;;;;;;9.11;100.00;-11053.91;5133770;27;20653;-62
2023/03/23 03:04:42;;;;;;;10.73;9.37;;;;;;;9.19;100.00;-11054.94;5133451;27;20202;-62
2023/03/23 03:07:28;;;;;;;10.57;9.47;;;;;;;9.26;100.00;-11055.78;5133897;27;20263;-63
2023/03/23 03:09:59;;;;;;;15.63;10.27;;;;;;;9.09;100.00;-11053.66;5133902;27;20548;-62
2023/03/23 03:12:36;;;;;;;18.80;10.17;;;;;;;9.07;100.00;-11053.41;5133951;27;20179;-62
2023/03/23 03:15:14;;;;;;;15.03;10.70;;;;;;;9.37;100.00;-11057.25;5029495;28;20189;-62
2023/03/23 03:17:45;;;;;;;19.70;11.87;;;;;;;9.33;100.00;-11056.75;5133326;27;20624;-63
2023/03/23 03:20:15;;;;;;;29.53;12.10;;;;;;;9.24;100.00;-11691.06;5133455;27;20221;-62
2023/03/23 03:22:45;;;;;;;30.33;12.23;;;;;;;9.13;100.00;-11689.59;5132456;27;20187;-62
2023/03/23 03:25:16;;;;;;;23.47;12.27;;;;;;;9.31;100.00;-12009.66;5132636;27;20203;-62
2023/03/23 03:27:49;;;;;;;40.93;13.00;;;;;;;9.24;100.00;-12008.72;5133048;27;20320;-62
2023/03/23 03:30:21;;;;;;;35.77;13.77;;;;;;;9.30;100.00;-12009.59;5029075;28;20278;-62
2023/03/23 03:32:53;;;;;;;15.43;11.60;;;;;;;9.20;100.00;-12008.16;5132537;27;20239;-62
2023/03/23 03:35:22;;;;;;;15.70;11.67;;;;;;;9.12;100.00;-12007.00;5029528;28;20625;-62
2023/03/23 03:37:50;;;;;;;22.17;11.83;;;;;;;9.17;100.00;-12007.72;5132853;27;20179;-62
2023/03/23 03:40:19;;;;;;;12.20;11.10;;;;;;;9.09;100.00;-12006.56;5029110;28;20206;-62
2023/03/23 03:42:46;;;;;;;13.60;11.33;;;;;;;8.95;100.00;-11687.03;5132798;27;20196;-63
2023/03/23 03:45:16;;;;;;;14.40;10.87;;;;;;;8.90;100.00;-11368.78;5028855;28;20194;-62
2023/03/23 03:47:43;;;;;;;12.33;10.87;;;;;;;8.71;100.00;-11366.38;5076440;27;20245;-62
2023/03/23 03:50:10;;;;;;;12.73;10.87;;;;;;;8.84;100.00;-11050.44;5048996;28;20620;-61
2023/03/23 03:52:40;;;;;;;13.13;10.83;;;;;;;8.93;100.00;-11051.66;5049044;28;20189;-62
2023/03/23 03:55:10;;;;;;;11.03;9.93;;;;;;;8.97;100.00;-10734.47;5049334;28;20189;-62
2023/03/23 03:57:38;;;;;;;21.57;10.90;;;;;;;8.82;100.00;-10415.09;5049520;28;20552;-64
2023/03/23 04:00:14;;;;;;;15.33;10.97;;;;;;;8.93;100.00;-10098.66;5048549;28;20185;-62
2023/03/23 04:02:41;;;;;;;13.93;9.87;;;;;;;8.82;100.00;-9779.81;5048967;28;20607;-62
2023/03/23 04:05:10;;;;;;;13.43;10.63;;;;;;;8.94;100.00;-9781.13;5048776;28;20277;-62
2023/03/23 04:07:39;;;;;;;16.47;10.87;;;;;;;8.97;100.00;-9781.38;5031486;28;20529;-63
2023/03/23 04:10:09;;;;;;;10.17;9.30;;;;;;;8.78;100.00;-9461.69;5048609;28;20244;-61
2023/03/23 04:12:37;;;;;;;10.40;9.50;;;;;;;8.96;100.00;-9463.53;5048490;28;20193;-61
2023/03/23 04:15:04;;;;;;;8.47;7.77;;;;;;;8.80;100.00;-9461.88;5048624;28;20197;-63
2023/03/23 04:17:31;;;;;;;8.43;7.83;;;;;;;8.81;100.00;-9144.31;5048953;28;20210;-62
2023/03/23 04:19:59;;;;;;;8.57;7.87;;;;;;;8.82;100.00;-9144.38;5048761;28;20200;-63
2023/03/23 04:22:29;;;;;;;8.03;7.37;;;;;;;8.74;100.00;-9143.59;5048292;28;20253;-63
2023/03/23 04:24:59;;;;;;;10.17;9.33;;;;;;;8.62;100.00;-9460.13;5048004;28;20182;-63
2023/03/23 04:27:29;;;;;;;10.33;9.33;;;;;;;9.02;100.00;-9464.16;5048609;28;20196;-62
2023/03/23 04:29:57;;;;;;;10.50;9.60;;;;;;;8.91;100.00;-9463.00;5048520;28;20670;-62
2023/03/23 04:32:28;;;;;;;12.40;11.07;;;;;;;9.12;100.00;-9465.16;5048306;28;20285;-61
2023/03/23 04:34:57;;;;;;;10.73;10.03;;;;;;;9.08;100.00;-9146.97;5048473;28;20277;-63
2023/03/23 04:37:28;;;;;;;12.27;11.37;;;;;;;9.15;100.00;-9465.47;5048147;28;20194;-62
2023/03/23 04:40:00;;;;;;;11.43;10.63;;;;;;;9.15;100.00;-9783.38;5048252;28;20193;-62
2023/03/23 04:42:29;;;;;;;10.67;9.70;;;;;;;9.02;100.00;-9464.16;5047932;28;20220;-63
2023/03/23 04:44:57;;;;;;;8.37;7.90;;;;;;;9.06;100.00;-9782.34;5048217;28;20651;-62
2023/03/23 04:47:24;;;;;;;9.87;9.17;;;;;;;8.98;100.00;-9781.50;5047820;28;20268;-62
2023/03/23 04:49:51;;;;;;;9.97;9.20;;;;;;;9.10;100.00;-10418.41;5048399;28;20555;-62
2023/03/23 04:52:20;;;;;;;10.10;9.10;;;;;;;9.20;100.00;-10419.47;5048420;28;20213;-62
2023/03/23 04:54:47;;;;;;;11.40;10.33;;;;;;;9.25;100.00;-10420.13;5048327;28;20560;-63
2023/03/23 04:57:15;;;;;;;10.53;9.53;;;;;;;9.16;100.00;-10419.06;5049108;28;20635;-61
2023/03/23 04:59:44;;;;;;;11.03;10.03;;;;;;;9.21;100.00;-10737.44;5051117;28;20223;-62
2023/03/23 05:02:12;;;;;;;13.07;11.77;;;;;;;9.22;100.00;-10737.56;5051513;28;20209;-62
2023/03/23 05:04:40;;;;;;;11.40;10.43;;;;;;;9.27;100.00;-11055.91;5051575;28;20204;-62
2023/03/23 05:07:08;;;;;;;10.77;9.90;;;;;;;9.15;100.00;-11054.44;5051326;28;20193;-62
2023/03/23 05:09:35;;;;;;;10.93;9.93;;;;;;;9.25;100.00;-11055.66;5051415;28;20213;-63
2023/03/23 05:12:05;;;;;;;10.23;9.47;;;;;;;9.27;100.00;-11055.91;5051152;28;20206;-61
2023/03/23 05:14:32;;;;;;;10.33;9.50;;;;;;;9.38;100.00;-11375.22;5051161;28;20192;-61
2023/03/23 05:17:00;;;;;;;11.10;10.07;;;;;;;9.22;100.00;-11690.69;5050876;28;20197;-63
2023/03/23 05:19:28;;;;;;;14.63;10.03;;;;;;;9.52;100.00;-11694.94;5050852;28;20193;-62
2023/03/23 05:22:02;;;;;;;10.77;9.90;;;;;;;9.60;100.00;-12013.84;5051340;28;20668;-62
2023/03/23 05:24:32;;;;;;;11.10;10.03;;;;;;;9.63;100.00;-12014.34;5050714;28;20209;-61
2023/03/23 05:27:00;;;;;;;10.83;8.77;;;;;;;9.71;100.00;-12333.31;5051048;28;20530;-62
2023/03/23 05:29:30;;;;;;;10.33;9.63;;;;;;;9.73;100.00;-12333.53;5050651;28;20186;-62
2023/03/23 05:31:59;;;;;;;9.97;9.13;;;;;;;9.83;100.00;-12652.94;5051024;28;20182;-62
2023/03/23 05:34:28;;;;;;;8.83;8.20;;;;;;;9.58;100.00;-12967.00;5050462;28;20190;-62
2023/03/23 05:36:57;;;;;;;10.13;9.10;;;;;;;9.78;100.00;-12970.13;5050664;28;20249;-63
2023/03/23 05:39:24;;;;;;;9.20;8.60;;;;;;;9.71;100.00;-13604.50;5050847;28;20197;-61
2023/03/23 05:41:51;;;;;;;8.50;8.00;;;;;;;9.73;100.00;-14240.28;5050450;28;20205;-61
2023/03/23 05:44:18;;;;;;;8.23;7.63;;;;;;;9.65;100.00;-14556.56;5050348;28;20204;-62
2023/03/23 05:46:45;;;;;;;8.03;7.40;;;;;;;9.74;100.00;-14875.81;5045203;28;20233;-61
2023/03/23 05:49:13;;;;;;;8.47;7.87;;;;;;;9.72;100.00;-14875.44;5134055;27;20193;-62
2023/03/23 05:51:41;;;;;;;6.40;6.00;;;;;;;9.67;100.00;-14874.47;5134584;27;20265;-62
2023/03/23 05:54:10;;;;;;;7.07;6.77;;;;;;;9.72;100.00;-15193.13;5135829;27;20246;-61
2023/03/23 05:56:36;;;;;;;7.03;6.63;;;;;;;9.81;100.00;-15194.91;5134734;27;20182;-61
2023/03/23 05:59:03;;;;;;;6.40;6.10;;;;;;;9.83;100.00;-15195.19;5134610;27;20186;-60
2023/03/23 06:01:31;;;;;;;6.50;6.00;;;;;;;9.77;100.00;-15194.00;5134436;27;20229;-60
2023/03/23 06:03:59;;;;;;;6.57;6.10;;;;;;;9.71;100.00;-15827.97;5134757;27;20194;-59
2023/03/23 06:06:26;;;;;;;6.53;6.23;;;;;;;9.77;100.00;-16781.75;5134462;27;20183;-62
2023/03/23 06:08:56;;;;;;;7.10;6.70;;;;;;;9.89;100.00;-17101.91;5133904;27;20193;-61
2023/03/23 06:11:24;;;;;;;6.87;6.47;;;;;;;9.98;100.00;-17421.59;5134117;27;20174;-61
2023/03/23 06:13:51;;;;;;;6.47;6.17;;;;;;;9.93;100.00;-18055.38;5134459;27;20261;-62
2023/03/23 06:16:17;;;;;;;7.27;6.87;;;;;;;9.80;100.00;-18053.97;5134699;27;20183;-62
2023/03/23 06:18:44;;;;;;;6.97;6.67;;;;;;;9.90;100.00;-18056.38;5134839;27;20690;-61
2023/03/23 06:21:12;;;;;;;6.60;6.30;;;;;;;9.99;100.00;-18058.56;5134423;27;20209;-61
2023/03/23 06:23:39;;;;;;;6.60;6.23;;;;;;;10.06;100.00;-18060.25;5134573;27;20190;-61
2023/03/23 06:26:09;;;;;;;6.97;6.67;;;;;;;10.14;100.00;-18060.34;5133552;27;20194;-61
2023/03/23 06:28:36;;;;;;;7.50;7.00;;;;;;;10.13;100.00;-18059.97;5134625;27;20587;-62
2023/03/23 06:31:06;;;;;;;7.03;6.63;;;;;;;10.03;100.00;-18059.53;5133974;27;20556;-61
2023/03/23 06:33:33;;;;;;;7.93;7.37;;;;;;;10.01;100.00;-18059.16;5030291;28;20194;-62
2023/03/23 06:36:01;;;;;;;7.20;6.80;;;;;;;10.01;100.00;-18059.03;5133590;27;20190;-61
2023/03/23 06:38:28;;;;;;;7.60;7.20;;;;;;;10.23;100.00;-18064.25;5133729;27;20194;-61
2023/03/23 06:40:56;;;;;;;8.00;7.57;;;;;;;10.17;100.00;-18062.81;5097998;28;20194;-61
2023/03/23 06:43:25;;;;;;;8.20;7.60;;;;;;;10.24;100.00;-18064.50;5029383;28;20194;-60
2023/03/23 06:45:52;;;;;;;8.50;8.10;;;;;;;10.32;100.00;-18066.53;5029923;28;20186;-61
2023/03/23 06:48:19;;;;;;;7.63;7.13;;;;;;;10.28;100.00;-18065.47;5056502;27;20236;-61
2023/03/23 06:50:47;;;;;;;7.83;7.23;;;;;;;10.29;100.00;-18065.81;5049476;28;20181;-61
2023/03/23 06:53:14;;;;;;;7.53;7.13;;;;;;;10.16;100.00;-18062.69;5049371;28;20193;-60
2023/03/23 06:55:43;;;;;;;7.50;7.10;;;;;;;10.04;100.00;-18059.78;5049471;28;20192;-62
2023/03/23 06:58:11;;;;;;;7.33;6.93;;;;;;;10.21;100.00;-18063.75;5049191;28;20181;-60
2023/03/23 07:00:40;;;;;;;8.10;7.60;;;;;;;10.12;100.00;-18061.59;5049112;28;20254;-61
2023/03/23 07:03:07;;;;;;;7.47;6.80;;;;;;;10.16;100.00;-18062.56;5049218;28;20235;-61
2023/03/23 07:05:34;;;;;;;8.37;7.63;;;;;;;9.81;100.00;-18054.34;5048882;28;20203;-61
2023/03/23 07:08:01;;;;;;;6.77;6.47;;;;;;;10.00;100.00;-18058.81;5049026;28;20605;-61
2023/03/23 07:10:28;;;;;;;6.50;6.20;;;;;;;10.16;100.00;-18062.56;5048669;28;20186;-62
2023/03/23 07:12:55;;;;;;;8.37;7.43;;;;;;;10.18;100.00;-18061.19;5048744;28;20193;-60
2023/03/23 07:15:22;;;;;;;7.20;6.70;;;;;;;10.26;100.00;-18065.09;5049062;28;20185;-61
2023/03/23 07:17:50;;;;;;;8.27;7.73;;;;;;;10.23;100.00;-18064.25;5048688;28;20189;-60
2023/03/23 07:20:17;;;;;;;8.67;8.27;;;;;;;10.30;100.00;-18065.94;5048271;28;20208;-61
2023/03/23 07:22:44;;;;;;;7.73;7.23;;;;;;;10.29;100.00;-18063.97;5048659;28;20213;-61
2023/03/23 07:25:11;;;;;;;7.73;7.33;;;;;;;10.21;100.00;-18061.91;5048747;28;20205;-61
2023/03/23 07:27:38;;;;;;;7.00;6.70;;;;;;;10.15;100.00;-17743.03;5048452;28;20204;-61
2023/03/23 07:30:07;;;;;;;7.37;6.93;;;;;;;10.01;100.00;-17422.19;5048546;28;20189;-61
2023/03/23 07:32:34;;;;;;;7.50;7.10;;;;;;;10.25;100.00;-17109.97;5030976;28;20182;-60
2023/03/23 07:35:03;;;;;;;7.53;7.03;;;;;;;10.14;100.00;-16789.81;5048497;28;20186;-61
2023/03/23 07:37:32;;;;;;;6.20;5.80;;;;;;;10.27;100.00;-16792.81;5048339;28;20192;-60
2023/03/23 07:39:58;;;;;;;7.67;7.27;;;;;;;10.38;100.00;-16795.25;5048159;28;20281;-60
2023/03/23 07:42:25;;;;;;;8.03;7.33;;;;;;;10.44;100.00;-17114.38;5048590;28;20706;-60
2023/03/23 07:44:52;;;;;;;7.60;7.20;;;;;;;10.50;100.00;-17115.72;5048627;28;20588;-59
2023/03/23 07:47:21;;;;;;;9.17;8.57;;;;;;;10.51;100.00;-18069.28;5048206;27;20233;-61
2023/03/23 07:49:48;;;;;;;7.77;7.40;;;;;;;10.36;100.00;-18067.50;5048235;28;20181;-60
2023/03/23 07:52:17;;;;;;;8.10;7.53;;;;;;;10.66;100.00;-18074.63;5048155;28;20197;-60
2023/03/23 07:54:44;;;;;;;8.77;8.17;;;;;;;10.81;100.00;-18078.16;5048531;28;20208;-60
2023/03/23 07:57:12;;;;;;;8.17;7.77;;;;;;;10.98;100.00;-18082.25;5048787;28;20655;-60
2023/03/23 07:59:39;;;;;;;7.43;7.13;;;;;;;10.96;100.00;-18081.75;5048276;28;20284;-60
2023/03/23 08:02:09;;;;;;;6.57;6.27;;;;;;;11.21;100.00;-18087.81;5048020;28;20214;-60
2023/03/23 08:04:37;;;;;;;7.57;7.10;;;;;;;11.18;100.00;-18085.22;5048486;28;20209;-60
2023/03/23 08:07:04;;;;;;;6.70;6.40;;;;;;;11.22;100.00;-14585.25;5063420;27;20178;-61
2023/03/23 08:09:32;;;;;;;7.07;6.77;;;;;;;11.18;100.00;-12354.97;5152916;27;20189;-61
2023/03/23 08:11:59;;;;;;;7.40;7.00;;;;;;;11.53;100.00;-12360.09;5134089;27;20190;-61
2023/03/23 08:14:27;;;;;;;7.47;7.17;;;;;;;11.70;100.00;-10448.69;5152969;27;20276;-60
2023/03/23 08:16:55;;;;;;;7.07;6.77;;;;;;;11.59;100.00;-3740.97;5152962;27;20193;-61
2023/03/23 08:19:22;;;;;;;8.20;7.70;;;;;;;11.53;100.00;-7255.16;5153054;27;20642;-61
2023/03/23 08:21:49;;;;;;;9.10;8.60;;;;;;;11.68;100.00;-10767.44;5152641;27;20292;-61
2023/03/23 08:24:16;;;;;;;8.73;8.33;;;;;;;11.35;100.00;-10763.47;5152400;27;20229;-62
2023/03/23 08:26:45;;;;;;;8.63;8.17;;;;;;;11.65;100.00;-9171.63;5152777;27;20182;-60
2023/03/23 08:29:12;;;;;;;8.30;7.90;;;;;;;11.53;100.00;-6297.09;5152657;27;20189;-61
2023/03/23 08:31:39;;;;;;;9.37;8.33;;;;;;;11.20;100.00;-3421.16;5155123;27;20190;-61
2023/03/23 08:34:06;;;;;;;9.23;8.63;;;;;;;11.08;100.00;2654.06;5157092;27;20296;-60
2023/03/23 08:36:34;;;;;;;8.20;7.80;;;;;;;11.26;100.00;2335.63;5157293;27;20632;-62
2023/03/23 08:39:01;;;;;;;8.97;8.57;;;;;;;11.35;100.00;5219.03;5157387;27;20628;-61
2023/03/23 08:41:28;;;;;;;10.07;9.37;;;;;;;11.60;100.00;8108.78;5156806;27;20182;-61
2023/03/23 08:43:57;;;;;;;10.07;9.10;;;;;;;11.69;100.00;14856.00;5156747;27;20552;-61
2023/03/23 08:46:24;;;;;;;12.00;11.00;;;;;;;11.76;100.00;16466.38;5138273;27;20533;-60
2023/03/23 08:48:51;;;;;;;9.63;8.90;;;;;;;11.42;100.00;20638.56;5156824;27;20177;-61
2023/03/23 08:51:18;;;;;;;9.50;8.80;;;;;;;11.18;100.00;18377.09;5157057;27;20193;-61
2023/03/23 08:53:45;;;;;;;9.13;8.53;;;;;;;11.62;100.00;15175.47;5156807;27;20179;-61
2023/03/23 08:56:13;;;;;;;8.73;8.33;;;;;;;11.58;100.00;15817.22;5156745;27;20193;-61
2023/03/23 08:58:40;;;;;;;9.07;8.47;;;;;;;11.92;100.00;21624.28;5156698;27;20206;-60
2023/03/23 09:01:10;;;;;;;9.13;8.63;;;;;;;11.74;100.00;32914.50;5156079;27;20189;-60
2023/03/23 09:03:38;;;;;;;10.57;9.83;;;;;;;11.75;100.00;26131.88;5156450;27;20228;-60
2023/03/23 09:06:08;;;;;;;10.20;9.40;;;;;;;11.89;100.00;20012.13;5156050;27;20183;-61
2023/03/23 09:08:37;;;;;;;10.23;9.53;;;;;;;12.04;100.00;24532.06;5156742;27;20621;-61
2023/03/23 09:11:06;;;;;;;9.70;9.10;;;;;;;12.13;100.00;32613.75;5156186;27;20178;-61
2023/03/23 09:13:33;;;;;;;49.87;12.50;;;;;;;12.30;100.00;36832.97;5156152;27;20227;-61
2023/03/23 09:16:01;;;;;;;9.73;8.80;;;;;;;12.53;100.00;41063.84;5155980;27;20202;-61
2023/03/23 09:18:29;;;;;;;9.67;9.07;;;;;;;12.71;100.00;61589.91;5156071;27;20560;-61
2023/03/23 09:20:57;;;;;;;9.87;9.13;;;;;;;12.78;100.00;77311.66;5156088;27;20185;-60
2023/03/23 09:23:24;;;;;;;10.90;9.80;;;;;;;12.92;100.00;83571.16;5156624;27;20202;-60
2023/03/23 09:25:52;;;;;;;13.17;10.23;;;;;;;12.88;100.00;90147.38;5156156;27;20694;-60
2023/03/23 09:28:19;;;;;;;9.73;8.50;;;;;;;12.57;100.00;93064.09;5156091;27;20701;-61
2023/03/23 09:30:47;;;;;;;18.77;10.23;;;;;;;12.54;100.00;84502.81;5155855;27;20196;-61
2023/03/23 09:33:15;;;;;;;11.40;10.27;;;;;;;12.20;100.00;72648.50;5155900;27;20547;-61
2023/03/23 09:35:43;;;;;;;11.20;10.17;;;;;;;12.37;100.00;63512.75;5156310;27;20279;-61
2023/03/23 09:38:12;;;;;;;10.13;9.10;;;;;;;12.51;100.00;67777.47;5155036;27;20243;-61
2023/03/23 09:40:48;;;;;;;9.80;9.00;;;;;;;12.46;100.00;85148.63;5156417;27;20247;-60
2023/03/23 09:43:42;;;;;;;9.87;9.07;;;;;;;12.30;100.00;81842.09;5155390;27;20212;-61
2023/03/23 09:46:24;;;;;;;9.63;8.83;;;;;;;12.67;100.00;76968.38;5155647;27;20546;-60
2023/03/23 09:48:53;;;;;;;16.53;8.80;;;;;;;12.65;100.00;85505.09;5155590;27;20563;-60
2023/03/23 09:51:42;;;;;;;16.83;9.57;;;;;;;12.72;100.00;70747.97;5155640;27;20674;-60
2023/03/23 09:54:16;;;;;;;10.00;8.17;;;;;;;12.59;100.00;98014.63;5155537;27;20238;-60
2023/03/23 09:56:43;;;;;;;8.33;7.73;;;;;;;12.48;100.00;119508.81;5155328;27;20265;-60
2023/03/23 09:59:17;;;;;;;7.63;7.23;;;;;;;12.41;100.00;120822.63;5155258;27;20194;-61
2023/03/23 10:01:48;;;;;;;7.43;6.93;;;;;;;12.39;100.00;131792.31;5155366;27;20181;-62
2023/03/23 10:04:23;;;;;;;6.37;6.07;;;;;;;12.31;100.00;132441.63;5155651;27;20221;-60
2023/03/23 10:06:51;;;;;;;6.87;6.23;;;;;;;12.38;100.00;126797.38;5155213;27;20206;-61
2023/03/23 10:09:20;;;;;;;10.97;7.40;;;;;;;12.54;100.00;126166.47;5155465;27;20189;-60
2023/03/23 10:11:57;;;;;;;11.93;7.63;;;;;;;12.64;100.00;120204.50;5155256;27;20179;-61
2023/03/23 10:14:38;;;;;;;15.33;7.30;;;;;;;12.85;100.00;123571.44;5155129;27;20177;-60
2023/03/23 10:17:14;;;;;;;35.63;13.40;;;;;;;13.14;100.00;114660.25;5155531;27;20178;-61
2023/03/23 10:19:47;;;;;;;37.50;13.27;;;;;;;13.13;100.00;119307.56;5155128;27;20181;-60
2023/03/23 10:22:19;;;;;;;36.80;15.00;;;;;;;13.43;100.00;117372.06;5155521;27;20184;-61
2023/03/23 10:24:53;;;;;;;30.57;13.20;;;;;;;13.32;100.00;141738.31;5155576;27;20189;-61
2023/03/23 10:27:31;;;;;;;23.07;12.80;;;;;;;13.69;100.00;149479.31;5136576;27;20258;-61
2023/03/23 10:30:06;;;;;;;19.03;11.10;;;;;;;13.76;100.00;149495.75;5154381;27;20193;-61
2023/03/23 10:32:44;;;;;;;10.20;9.17;;;;;;;13.74;100.00;149492.00;5154488;27;20220;-60
2023/03/23 10:35:15;;;;;;;19.93;9.13;;;;;;;13.81;100.00;149509.72;5155008;27;20593;-61
2023/03/23 10:37:50;;;;;;;19.87;11.70;;;;;;;13.83;100.00;149514.81;5154543;27;20170;-61
2023/03/23 10:40:20;;;;;;;13.13;10.33;;;;;;;13.75;100.00;149493.25;5154037;27;20185;-62
2023/03/23 10:42:48;;;;;;;18.97;11.80;;;;;;;13.58;100.00;149451.41;5154386;27;20206;-61
2023/03/23 10:45:20;;;;;;;15.57;11.10;;;;;;;13.34;100.00;149390.59;5154341;27;20631;-61
2023/03/23 10:47:52;;;;;;;11.30;10.20;;;;;;;13.44;100.00;144026.31;5154394;27;20653;-64
2023/03/23 10:50:26;;;;;;;11.47;10.20;;;;;;;13.34;100.00;148303.84;5154360;27;20284;-61
2023/03/23 10:52:57;;;;;;;11.67;10.47;;;;;;;13.44;100.00;149415.97;5154090;27;20173;-61
2023/03/23 10:55:35;;;;;;;17.73;10.27;;;;;;;13.42;100.00;149410.88;5154011;27;20277;-61
2023/03/23 10:58:04;;;;;;;21.50;10.10;;;;;;;13.63;100.00;149464.09;5153987;27;20238;-62
2023/03/23 11:00:32;;;;;;;17.50;10.27;;;;;;;13.94;100.00;149541.41;5153100;27;20277;-60
2023/03/23 11:03:02;;;;;;;32.53;12.17;;;;;;;14.03;100.00;149564.22;5153871;27;20233;-60
2023/03/23 11:05:35;;;;;;;14.10;9.93;;;;;;;13.83;100.00;149514.81;5153692;27;20182;-61
2023/03/23 11:08:10;;;;;;;16.97;10.23;;;;;;;14.04;100.00;149568.03;5154015;27;20273;-60
2023/03/23 11:10:39;;;;;;;13.30;11.00;;;;;;;13.88;100.00;149527.44;5135170;27;20197;-60
2023/03/23 11:13:13;;;;;;;15.03;10.53;;;;;;;14.00;100.00;149557.84;5153162;27;20185;-59
2023/03/23 11:15:42;;;;;;;11.13;9.47;;;;;;;13.88;100.00;149526.16;5153091;27;20227;-59
2023/03/23 11:18:14;;;;;;;12.93;10.00;;;;;;;13.81;100.00;149509.72;5153367;27;20189;-60
2023/03/23 11:20:43;;;;;;;27.13;11.50;;;;;;;13.88;100.00;149526.16;5153754;27;20234;-60
2023/03/23 11:23:21;;;;;;;17.33;10.73;;;;;;;13.79;100.00;149504.63;5152596;27;20204;-61
2023/03/23 11:25:58;;;;;;;21.20;10.43;;;;;;;13.80;100.00;149505.88;5153167;27;20186;-60
2023/03/23 11:28:33;;;;;;;13.60;12.00;;;;;;;13.68;100.00;149476.75;5153241;27;20185;-60